Time;durP1;ratioP1;P1;durP2;ratioP2;P2;SDS_P1;SDS_P2;PMS_P1;PMS_P2;Temp;Humidity;BMP_temperature;BMP_pressure;BME280_temperature;BME280_humidity;BME280_pressure;Samples;Min_cycle;Max_cycle;Signal;HPM_P1;HPM_P2
2023/07/07 00:01:55;;;;;;;;;;;17.80;99.90;;;;;;5075192;28;20493;-65
2023/07/07 00:04:21;;;;;;;;;;;17.80;99.90;;;;;;5074803;28;20493;-64
2023/07/07 00:06:50;;;;;;;;;;;17.80;99.90;;;;;;5075351;28;20372;-69
2023/07/07 00:09:19;;;;;;;;;;;17.80;99.90;;;;;;5075392;28;20394;-67
2023/07/07 00:11:46;;;;;;;;;;;17.80;99.90;;;;;;5075115;28;20001;-69
2023/07/07 00:14:13;;;;;;;;;;;17.70;99.90;;;;;;5074941;28;20346;-67
2023/07/07 00:16:40;;;;;;;;;;;17.70;99.90;;;;;;5075134;28;20015;-69
2023/07/07 00:19:10;;;;;;;;;;;17.70;99.90;;;;;;5075086;28;20095;-68
2023/07/07 00:21:37;;;;;;;;;;;17.60;99.90;;;;;;5075300;28;20377;-70
2023/07/07 00:24:07;;;;;;;;;;;17.60;99.90;;;;;;5075339;28;20095;-67
2023/07/07 00:26:34;;;;;;;;;;;17.60;99.90;;;;;;5075054;28;20023;-68
2023/07/07 00:29:02;;;;;;;;;;;17.60;99.90;;;;;;5074832;28;20003;-67
2023/07/07 00:31:29;;;;;;;;;;;17.60;99.90;;;;;;5075070;28;20016;-66
2023/07/07 00:33:56;;;;;;;;;;;17.60;99.90;;;;;;5074552;28;20012;-68
2023/07/07 00:36:23;;;;;;;;;;;17.50;99.90;;;;;;5074599;28;20001;-67
2023/07/07 00:38:51;;;;;;;;;;;17.50;99.90;;;;;;5074895;28;20001;-68
2023/07/07 00:41:19;;;;;;;;;;;17.50;99.90;;;;;;5074712;28;20001;-67
2023/07/07 00:44:05;;;;;;;;;;;17.50;99.90;;;;;;5075437;28;20012;-68
2023/07/07 00:46:37;;;;;;;;;;;17.50;99.90;;;;;;5074627;28;20054;-68
2023/07/07 00:49:08;;;;;;;;;;;17.40;99.90;;;;;;5074352;28;20001;-68
2023/07/07 00:51:36;;;;;;;;;;;17.40;99.90;;;;;;5075128;28;20136;-67
2023/07/07 00:54:05;;;;;;;;;;;17.40;99.90;;;;;;5074398;28;20012;-67
2023/07/07 00:56:35;;;;;;;;;;;17.30;99.90;;;;;;5074367;28;20092;-65
2023/07/07 00:59:06;;;;;;;;;;;17.30;99.90;;;;;;5074178;28;20042;-65
2023/07/07 01:01:33;;;;;;;;;;;17.30;99.90;;;;;;5074519;28;20333;-65
2023/07/07 01:04:03;;;;;;;;;;;17.30;99.90;;;;;;5074397;28;20329;-65
2023/07/07 01:06:32;;;;;;;;;;;17.30;99.90;;;;;;5074113;28;20005;-65
2023/07/07 01:09:00;;;;;;;;;;;17.20;99.90;;;;;;5074117;28;20002;-64
2023/07/07 01:11:27;;;;;;;;;;;17.20;99.90;;;;;;5074388;28;20361;-65
2023/07/07 01:13:56;;;;;;;;;;;17.20;99.90;;;;;;5074330;28;20001;-65
2023/07/07 01:16:26;;;;;;;;;;;17.20;99.90;;;;;;5074237;28;20323;-64
2023/07/07 01:18:58;;;;;;;;;;;17.20;99.90;;;;;;5074079;28;20001;-64
2023/07/07 01:21:29;;;;;;;;;;;17.20;99.90;;;;;;5074299;28;20040;-64
2023/07/07 01:24:07;;;;;;;;;;;17.20;99.90;;;;;;5074197;28;20180;-64
2023/07/07 01:26:51;;;;;;;;;;;17.20;99.90;;;;;;5077657;28;20027;-64
2023/07/07 01:29:26;;;;;;;;;;;17.20;99.90;;;;;;5077605;28;19997;-64
2023/07/07 01:31:56;;;;;;;;;;;17.10;99.90;;;;;;5077489;28;19997;-64
2023/07/07 01:34:23;;;;;;;;;;;17.10;99.90;;;;;;5077412;28;20426;-64
2023/07/07 01:36:50;;;;;;;;;;;17.00;99.90;;;;;;5077521;28;20047;-65
2023/07/07 01:39:16;;;;;;;;;;;17.00;99.90;;;;;;5077577;28;20001;-65
2023/07/07 01:41:49;;;;;;;;;;;17.00;99.90;;;;;;5077429;28;20001;-66
2023/07/07 01:44:19;;;;;;;;;;;16.90;99.90;;;;;;5077502;28;20050;-65
2023/07/07 01:46:49;;;;;;;;;;;16.90;99.90;;;;;;5077448;28;20352;-66
2023/07/07 01:49:19;;;;;;;;;;;16.90;99.90;;;;;;5077230;28;20001;-64
2023/07/07 01:51:49;;;;;;;;;;;16.90;99.90;;;;;;5077452;28;19997;-64
2023/07/07 01:54:16;;;;;;;;;;;16.80;99.90;;;;;;5077191;28;20048;-65
2023/07/07 01:56:44;;;;;;;;;;;16.80;99.90;;;;;;5077517;28;20039;-64
2023/07/07 01:59:11;;;;;;;;;;;16.80;99.90;;;;;;5077557;28;20106;-67
2023/07/07 02:01:39;;;;;;;;;;;16.80;99.90;;;;;;5077625;28;20422;-68
2023/07/07 02:04:05;;;;;;;;;;;16.80;99.90;;;;;;5077322;28;20041;-67
2023/07/07 02:06:33;;;;;;;;;;;16.70;99.90;;;;;;5077383;28;20093;-68
2023/07/07 02:09:00;;;;;;;;;;;16.70;99.90;;;;;;5077305;28;20479;-67
2023/07/07 02:11:27;;;;;;;;;;;16.70;99.90;;;;;;5076896;28;20494;-67
2023/07/07 02:13:53;;;;;;;;;;;16.60;99.90;;;;;;5077090;28;20012;-67
2023/07/07 02:16:20;;;;;;;;;;;16.60;99.90;;;;;;5077167;28;20104;-66
2023/07/07 02:18:48;;;;;;;;;;;16.60;99.90;;;;;;5076841;28;20083;-69
2023/07/07 02:21:15;;;;;;;;;;;16.60;99.90;;;;;;5077133;28;20070;-67
2023/07/07 02:23:44;;;;;;;;;;;16.60;99.90;;;;;;5076921;28;20048;-67
2023/07/07 02:26:10;;;;;;;;;;;16.50;99.90;;;;;;5077066;28;20001;-67
2023/07/07 02:28:37;;;;;;;;;;;16.50;99.90;;;;;;5077008;28;20023;-66
2023/07/07 02:31:04;;;;;;;;;;;16.50;99.90;;;;;;5076599;28;20011;-67
2023/07/07 02:33:31;;;;;;;;;;;16.50;99.90;;;;;;5076555;28;20051;-67
2023/07/07 02:36:01;;;;;;;;;;;16.50;99.90;;;;;;5075886;28;20437;-67
2023/07/07 02:38:30;;;;;;;;;;;16.50;99.90;;;;;;5075609;28;20031;-68
2023/07/07 02:40:58;;;;;;;;;;;16.40;99.90;;;;;;5076577;28;20011;-68
2023/07/07 02:43:25;;;;;;;;;;;16.40;99.90;;;;;;5075971;28;20008;-68
2023/07/07 02:45:52;;;;;;;;;;;16.40;99.90;;;;;;5076100;28;20001;-68
2023/07/07 02:48:19;;;;;;;;;;;16.40;99.90;;;;;;5076014;28;20008;-68
2023/07/07 02:50:53;;;;;;;;;;;16.40;99.90;;;;;;5076541;28;20062;-67
2023/07/07 02:53:20;;;;;;;;;;;16.40;99.90;;;;;;5076543;28;20001;-68
2023/07/07 02:55:46;;;;;;;;;;;16.40;99.90;;;;;;5076320;28;20363;-68
2023/07/07 02:58:14;;;;;;;;;;;16.40;99.90;;;;;;5075958;28;20008;-68
2023/07/07 03:00:41;;;;;;;;;;;16.40;99.90;;;;;;5075858;28;20009;-68
2023/07/07 03:03:08;;;;;;;;;;;16.40;99.90;;;;;;5075994;28;20381;-68
2023/07/07 03:05:34;;;;;;;;;;;16.40;99.90;;;;;;5075847;28;20028;-66
2023/07/07 03:08:01;;;;;;;;;;;16.40;99.90;;;;;;5075930;28;20388;-67
2023/07/07 03:10:28;;;;;;;;;;;16.30;99.90;;;;;;5076074;28;20325;-67
2023/07/07 03:12:54;;;;;;;;;;;16.30;99.90;;;;;;5075789;28;20000;-67
2023/07/07 03:15:22;;;;;;;;;;;16.30;99.90;;;;;;5075941;28;20025;-67
2023/07/07 03:17:49;;;;;;;;;;;16.30;99.90;;;;;;5075694;28;20001;-67
2023/07/07 03:20:16;;;;;;;;;;;16.20;99.90;;;;;;5075988;28;20001;-67
2023/07/07 03:22:42;;;;;;;;;;;16.20;99.90;;;;;;5075854;28;20012;-67
2023/07/07 03:25:10;;;;;;;;;;;16.20;99.90;;;;;;5075832;28;20027;-67
2023/07/07 03:27:37;;;;;;;;;;;16.20;99.90;;;;;;5075743;28;20395;-66
2023/07/07 03:30:04;;;;;;;;;;;16.20;99.90;;;;;;5075598;28;20327;-66
2023/07/07 03:32:32;;;;;;;;;;;16.30;99.90;;;;;;5075081;28;20007;-67
2023/07/07 03:34:59;;;;;;;;;;;16.30;99.90;;;;;;5075415;28;20020;-67
2023/07/07 03:37:25;;;;;;;;;;;16.30;99.90;;;;;;5075185;28;20021;-68
2023/07/07 03:39:52;;;;;;;;;;;16.20;99.90;;;;;;5075485;28;20303;-67
2023/07/07 03:42:20;;;;;;;;;;;16.20;99.90;;;;;;5075539;28;20322;-67
2023/07/07 03:44:48;;;;;;;;;;;16.20;99.90;;;;;;5074991;28;20371;-67
2023/07/07 03:47:17;;;;;;;;;;;16.20;99.90;;;;;;5074905;28;20414;-67
2023/07/07 03:49:45;;;;;;;;;;;16.20;99.90;;;;;;5075029;28;20012;-68
2023/07/07 03:52:12;;;;;;;;;;;16.20;99.90;;;;;;5075045;28;20009;-68
2023/07/07 03:54:39;;;;;;;;;;;16.20;99.90;;;;;;5074923;28;20512;-68
2023/07/07 03:57:06;;;;;;;;;;;16.20;99.90;;;;;;5075018;28;20013;-68
2023/07/07 03:59:33;;;;;;;;;;;16.20;99.90;;;;;;5075281;28;20001;-68
2023/07/07 04:01:59;;;;;;;;;;;16.30;99.90;;;;;;5074911;28;19997;-68
2023/07/07 04:04:26;;;;;;;;;;;16.30;99.90;;;;;;5074932;28;20019;-68
2023/07/07 04:06:54;;;;;;;;;;;16.40;99.90;;;;;;5075034;28;20084;-67
2023/07/07 04:09:21;;;;;;;;;;;16.40;99.90;;;;;;5075029;28;20001;-67
2023/07/07 04:11:47;;;;;;;;;;;16.40;99.90;;;;;;5074854;28;20087;-68
2023/07/07 04:14:14;;;;;;;;;;;16.50;99.90;;;;;;5075247;28;20001;-67
2023/07/07 04:16:41;;;;;;;;;;;16.50;99.90;;;;;;5074893;28;20348;-67
2023/07/07 04:19:07;;;;;;;;;;;16.60;99.90;;;;;;5074792;28;20401;-67
2023/07/07 04:21:34;;;;;;;;;;;16.60;99.90;;;;;;5074731;28;20011;-67
2023/07/07 04:24:06;;;;;;;;;;;16.60;99.90;;;;;;5074898;28;20001;-68
2023/07/07 04:26:32;;;;;;;;;;;16.70;99.90;;;;;;5074843;28;20084;-68
2023/07/07 04:29:00;;;;;;;;;;;16.70;99.90;;;;;;5075130;28;20112;-68
2023/07/07 04:31:27;;;;;;;;;;;16.80;99.90;;;;;;5074889;28;20027;-67
2023/07/07 04:33:54;;;;;;;;;;;16.80;99.90;;;;;;5074531;28;20008;-68
2023/07/07 04:36:21;;;;;;;;;;;16.80;99.90;;;;;;5074613;28;20013;-68
2023/07/07 04:38:49;;;;;;;;;;;16.90;99.90;;;;;;5074659;28;20005;-68
2023/07/07 04:41:18;;;;;;;;;;;16.90;99.90;;;;;;5074838;28;20283;-68
2023/07/07 04:43:45;;;;;;;;;;;16.90;99.90;;;;;;5074962;28;20393;-68
2023/07/07 04:46:12;;;;;;;;;;;17.00;99.90;;;;;;5074789;28;20011;-66
2023/07/07 04:48:41;;;;;;;;;;;17.00;99.90;;;;;;5074756;28;20004;-67
2023/07/07 04:51:10;;;;;;;;;;;17.10;99.90;;;;;;5074391;28;20001;-67
2023/07/07 04:53:37;;;;;;;;;;;17.10;99.90;;;;;;5074714;28;20337;-68
2023/07/07 04:56:09;;;;;;;;;;;17.10;99.90;;;;;;5074430;28;20027;-68
2023/07/07 04:58:38;;;;;;;;;;;17.10;99.90;;;;;;5074354;28;19997;-68
2023/07/07 05:01:05;;;;;;;;;;;17.20;99.90;;;;;;5077518;28;20338;-68
2023/07/07 05:03:32;;;;;;;;;;;17.30;99.90;;;;;;5078408;28;20001;-68
2023/07/07 05:05:59;;;;;;;;;;;17.30;99.90;;;;;;5078127;28;20001;-68
2023/07/07 05:08:25;;;;;;;;;;;17.40;99.90;;;;;;5078295;28;20099;-67
2023/07/07 05:10:52;;;;;;;;;;;17.40;99.90;;;;;;5078283;28;20436;-68
2023/07/07 05:13:19;;;;;;;;;;;17.40;99.90;;;;;;5077972;28;20002;-68
2023/07/07 05:15:47;;;;;;;;;;;17.40;99.90;;;;;;5078248;28;20116;-68
2023/07/07 05:18:15;;;;;;;;;;;17.40;99.90;;;;;;5078116;28;20012;-68
2023/07/07 05:20:41;;;;;;;;;;;17.40;99.90;;;;;;5078117;28;20383;-67
2023/07/07 05:23:09;;;;;;;;;;;17.40;99.90;;;;;;5077657;28;20057;-67
2023/07/07 05:25:38;;;;;;;;;;;17.50;99.90;;;;;;5078010;28;20001;-68
2023/07/07 05:28:04;;;;;;;;;;;17.50;99.90;;;;;;5078114;28;20027;-68
2023/07/07 05:30:31;;;;;;;;;;;17.60;99.90;;;;;;5077796;28;20023;-68
2023/07/07 05:32:59;;;;;;;;;;;17.70;99.90;;;;;;5077256;28;20007;-67
2023/07/07 05:35:26;;;;;;;;;;;17.80;99.90;;;;;;5077446;28;20001;-68
2023/07/07 05:37:52;;;;;;;;;;;18.00;99.90;;;;;;5077350;28;20021;-68
2023/07/07 05:40:19;;;;;;;;;;;18.00;99.90;;;;;;5077575;28;20012;-69
2023/07/07 05:42:45;;;;;;;;;;;18.20;99.90;;;;;;5077440;28;20424;-68
2023/07/07 05:45:12;;;;;;;;;;;18.30;99.90;;;;;;5077428;28;20008;-68
2023/07/07 05:47:39;;;;;;;;;;;18.20;99.90;;;;;;5077127;28;20341;-68
2023/07/07 05:50:09;;;;;;;;;;;18.30;99.90;;;;;;5077482;28;20388;-66
2023/07/07 05:52:38;;;;;;;;;;;18.40;99.90;;;;;;5077439;28;20417;-67
2023/07/07 05:55:06;;;;;;;;;;;18.40;99.90;;;;;;5077279;28;20005;-67
2023/07/07 05:57:32;;;;;;;;;;;18.40;99.90;;;;;;5077366;28;20013;-68
2023/07/07 05:59:59;;;;;;;;;;;18.50;99.90;;;;;;5077071;28;20001;-67
2023/07/07 06:02:25;;;;;;;;;;;18.50;99.90;;;;;;5077033;28;20055;-68
2023/07/07 06:04:52;;;;;;;;;;;18.60;99.90;;;;;;5077027;28;20012;-67
2023/07/07 06:07:22;;;;;;;;;;;18.80;99.90;;;;;;5077194;28;20012;-68
2023/07/07 06:09:57;;;;;;;;;;;18.80;99.90;;;;;;5076788;28;20319;-68
2023/07/07 06:12:27;;;;;;;;;;;18.90;99.90;;;;;;5076913;28;19996;-68
2023/07/07 06:14:53;;;;;;;;;;;19.00;99.90;;;;;;5077160;28;20051;-67
2023/07/07 06:17:20;;;;;;;;;;;19.00;99.90;;;;;;5076988;28;20023;-66
2023/07/07 06:19:46;;;;;;;;;;;19.00;99.90;;;;;;5077113;28;20011;-68
2023/07/07 06:22:13;;;;;;;;;;;19.10;99.90;;;;;;5076912;28;20001;-68
2023/07/07 06:24:41;;;;;;;;;;;19.30;99.90;;;;;;5077096;28;20337;-68
2023/07/07 06:27:08;;;;;;;;;;;19.40;99.90;;;;;;5076953;28;20016;-68
2023/07/07 06:29:35;;;;;;;;;;;19.50;99.90;;;;;;5076698;28;20001;-67
2023/07/07 06:32:02;;;;;;;;;;;19.60;99.90;;;;;;5076913;28;20337;-68
2023/07/07 06:34:28;;;;;;;;;;;19.70;99.90;;;;;;5076535;28;20001;-67
2023/07/07 06:36:55;;;;;;;;;;;19.70;99.90;;;;;;5076581;28;20072;-68
2023/07/07 06:39:22;;;;;;;;;;;19.80;99.90;;;;;;5076707;28;20005;-68
2023/07/07 06:41:50;;;;;;;;;;;19.80;99.90;;;;;;5077266;28;20001;-68
2023/07/07 06:44:16;;;;;;;;;;;19.80;99.90;;;;;;5076639;28;20460;-67
2023/07/07 06:46:43;;;;;;;;;;;19.80;99.90;;;;;;5076369;28;20001;-67
2023/07/07 06:49:09;;;;;;;;;;;19.90;99.90;;;;;;5076375;28;20088;-67
2023/07/07 06:51:36;;;;;;;;;;;19.90;99.90;;;;;;5077083;28;20115;-68
2023/07/07 06:54:03;;;;;;;;;;;19.90;99.90;;;;;;5076015;28;20045;-68
2023/07/07 06:56:30;;;;;;;;;;;20.00;99.90;;;;;;5075759;28;20088;-69
2023/07/07 06:58:57;;;;;;;;;;;20.00;99.90;;;;;;5076108;28;20028;-67
2023/07/07 07:01:24;;;;;;;;;;;20.00;99.90;;;;;;5076253;28;20001;-68
2023/07/07 07:03:51;;;;;;;;;;;20.10;99.90;;;;;;5076072;28;20001;-69
2023/07/07 07:06:17;;;;;;;;;;;20.20;99.90;;;;;;5076069;28;20001;-67
2023/07/07 07:08:47;;;;;;;;;;;20.20;99.90;;;;;;5075575;28;20001;-68
2023/07/07 07:11:14;;;;;;;;;;;20.30;99.90;;;;;;5075433;28;20419;-68
2023/07/07 07:13:41;;;;;;;;;;;20.40;99.90;;;;;;5075689;28;20017;-68
2023/07/07 07:16:09;;;;;;;;;;;20.40;99.90;;;;;;5075620;28;20001;-68
2023/07/07 07:18:36;;;;;;;;;;;20.50;99.90;;;;;;5075776;28;20084;-67
2023/07/07 07:21:02;;;;;;;;;;;20.70;99.90;;;;;;5075863;28;20321;-68
2023/07/07 07:23:29;;;;;;;;;;;21.00;99.90;;;;;;5074884;28;20453;-67
2023/07/07 07:25:56;;;;;;;;;;;21.00;99.90;;;;;;5075542;28;20000;-68
2023/07/07 07:28:22;;;;;;;;;;;21.10;99.90;;;;;;5075361;28;20001;-68
2023/07/07 07:30:49;;;;;;;;;;;21.30;98.10;;;;;;5075587;28;20100;-68
2023/07/07 07:33:19;;;;;;;;;;;21.40;99.90;;;;;;5075308;28;20001;-67
2023/07/07 07:35:46;;;;;;;;;;;21.40;99.90;;;;;;5075504;28;20288;-68
2023/07/07 07:38:14;;;;;;;;;;;21.40;99.90;;;;;;5074991;28;20111;-67
2023/07/07 07:40:41;;;;;;;;;;;21.40;99.30;;;;;;5074976;28;20005;-67
2023/07/07 07:43:07;;;;;;;;;;;21.40;99.70;;;;;;5075117;28;20001;-67
2023/07/07 07:45:34;;;;;;;;;;;21.40;97.80;;;;;;5074913;28;20001;-67
2023/07/07 07:48:01;;;;;;;;;;;21.40;98.40;;;;;;5075159;28;20005;-67
2023/07/07 07:50:30;;;;;;;;;;;21.40;97.20;;;;;;5074993;28;20001;-67
2023/07/07 07:52:56;;;;;;;;;;;21.50;96.70;;;;;;5074761;28;20462;-67
2023/07/07 07:55:23;;;;;;;;;;;21.70;96.70;;;;;;5074879;28;20000;-67
2023/07/07 07:57:49;;;;;;;;;;;21.80;97.20;;;;;;5075058;28;20025;-67
2023/07/07 08:00:17;;;;;;;;;;;21.90;97.60;;;;;;5074779;28;20079;-68
2023/07/07 08:02:44;;;;;;;;;;;22.10;96.70;;;;;;5075137;28;20353;-68
2023/07/07 08:05:11;;;;;;;;;;;22.20;93.80;;;;;;5075681;28;20410;-68
2023/07/07 08:07:39;;;;;;;;;;;22.20;90.90;;;;;;5075467;28;20325;-67
2023/07/07 08:10:06;;;;;;;;;;;22.20;89.40;;;;;;5075522;28;20084;-68
2023/07/07 08:12:33;;;;;;;;;;;22.20;85.70;;;;;;5075525;28;20341;-67
2023/07/07 08:14:59;;;;;;;;;;;22.20;82.20;;;;;;5074590;28;20011;-68
2023/07/07 08:17:26;;;;;;;;;;;22.30;80.80;;;;;;5074861;28;20013;-68
2023/07/07 08:19:54;;;;;;;;;;;22.30;81.80;;;;;;5075193;28;20013;-68
2023/07/07 08:22:22;;;;;;;;;;;22.30;81.00;;;;;;5075052;28;20490;-67
2023/07/07 08:24:50;;;;;;;;;;;22.30;79.70;;;;;;5074895;28;20345;-67
2023/07/07 08:27:18;;;;;;;;;;;22.40;79.10;;;;;;5074723;28;20001;-66
2023/07/07 08:29:44;;;;;;;;;;;22.40;78.20;;;;;;5074391;28;20001;-67
2023/07/07 08:32:12;;;;;;;;;;;22.50;77.20;;;;;;5074692;28;20005;-68
2023/07/07 08:34:39;;;;;;;;;;;22.40;75.10;;;;;;5075479;28;20011;-67
2023/07/07 08:37:06;;;;;;;;;;;22.50;71.50;;;;;;5078310;28;20021;-67
2023/07/07 08:39:34;;;;;;;;;;;22.50;71.50;;;;;;5078781;28;20000;-68
2023/07/07 08:42:03;;;;;;;;;;;22.60;69.00;;;;;;5078779;28;20058;-67
2023/07/07 08:44:32;;;;;;;;;;;22.70;66.90;;;;;;5078392;28;20030;-67
2023/07/07 08:47:07;;;;;;;;;;;22.70;63.90;;;;;;5078353;28;20001;-68
2023/07/07 08:49:36;;;;;;;;;;;22.70;63.90;;;;;;5078256;28;20055;-67
2023/07/07 08:52:05;;;;;;;;;;;22.70;64.30;;;;;;5078812;28;20004;-68
2023/07/07 08:54:34;;;;;;;;;;;22.90;62.60;;;;;;5078404;28;20016;-67
2023/07/07 08:57:06;;;;;;;;;;;23.00;61.80;;;;;;5078439;28;20021;-67
2023/07/07 08:59:38;;;;;;;;;;;23.00;60.70;;;;;;5078728;28;19997;-68
2023/07/07 09:02:08;;;;;;;;;;;23.00;62.00;;;;;;5078376;28;20008;-68
2023/07/07 09:04:39;;;;;;;;;;;23.10;60.10;;;;;;5078231;28;20092;-67
2023/07/07 09:07:33;;;;;;;;;;;23.10;60.30;;;;;;5078001;28;20119;-68
2023/07/07 09:10:11;;;;;;;;;;;23.20;61.10;;;;;;5042660;28;20089;-68
2023/07/07 09:12:41;;;;;;;;;;;23.20;60.70;;;;;;5078115;28;20299;-68
2023/07/07 09:15:12;;;;;;;;;;;23.30;59.50;;;;;;5077727;28;20096;-68
2023/07/07 09:17:40;;;;;;;;;;;23.30;62.50;;;;;;5077802;28;20359;-67
2023/07/07 09:20:08;;;;;;;;;;;23.20;59.90;;;;;;5077491;28;20005;-68
2023/07/07 09:22:41;;;;;;;;;;;23.30;61.40;;;;;;5077537;28;20001;-66
2023/07/07 09:25:16;;;;;;;;;;;23.40;59.60;;;;;;5077779;28;20008;-67
2023/07/07 09:27:50;;;;;;;;;;;23.30;58.00;;;;;;5077443;28;20023;-68
2023/07/07 09:30:21;;;;;;;;;;;23.50;56.30;;;;;;5077631;28;20423;-67
2023/07/07 09:32:48;;;;;;;;;;;23.40;56.10;;;;;;5078082;28;20406;-68
2023/07/07 09:35:15;;;;;;;;;;;23.40;55.60;;;;;;5077669;28;20307;-67
2023/07/07 09:37:48;;;;;;;;;;;23.50;55.40;;;;;;5077225;28;20031;-68
2023/07/07 09:40:17;;;;;;;;;;;23.50;55.10;;;;;;5077241;28;20008;-67
2023/07/07 09:42:52;;;;;;;;;;;23.50;54.40;;;;;;5077577;28;20001;-68
2023/07/07 09:45:24;;;;;;;;;;;23.50;53.70;;;;;;5076771;28;19997;-68
2023/07/07 09:47:56;;;;;;;;;;;23.50;51.50;;;;;;5077296;28;20013;-67
2023/07/07 09:50:26;;;;;;;;;;;23.50;54.00;;;;;;5077535;28;20425;-68
2023/07/07 09:52:55;;;;;;;;;;;23.60;51.60;;;;;;5077096;28;20011;-67
2023/07/07 09:55:22;;;;;;;;;;;23.70;53.20;;;;;;5077450;28;20005;-67
2023/07/07 09:57:55;;;;;;;;;;;23.80;50.80;;;;;;5076966;28;20021;-68
2023/07/07 10:00:22;;;;;;;;;;;23.80;50.90;;;;;;5077419;28;20095;-68
2023/07/07 10:02:49;;;;;;;;;;;23.90;49.40;;;;;;5077210;28;20051;-68
2023/07/07 10:05:20;;;;;;;;;;;23.90;49.20;;;;;;5076953;28;20028;-68
2023/07/07 10:07:46;;;;;;;;;;;23.90;48.30;;;;;;5077193;28;20012;-68
2023/07/07 10:10:14;;;;;;;;;;;24.00;47.70;;;;;;5077057;28;20087;-67
2023/07/07 10:12:41;;;;;;;;;;;23.90;49.40;;;;;;5077297;28;20002;-68
2023/07/07 10:15:27;;;;;;;;;;;23.90;48.50;;;;;;5077292;28;20012;-68
2023/07/07 10:17:57;;;;;;;;;;;23.90;48.20;;;;;;5077125;28;20017;-68
2023/07/07 10:20:24;;;;;;;;;;;23.90;49.10;;;;;;5076726;28;19996;-68
2023/07/07 10:22:50;;;;;;;;;;;24.10;47.80;;;;;;5076787;28;20001;-68
2023/07/07 10:25:17;;;;;;;;;;;24.10;47.30;;;;;;5076680;28;20001;-69
2023/07/07 10:27:49;;;;;;;;;;;24.10;49.20;;;;;;5076257;28;20001;-68
2023/07/07 10:30:15;;;;;;;;;;;24.20;49.00;;;;;;5076598;28;20020;-68
2023/07/07 10:32:42;;;;;;;;;;;24.30;49.80;;;;;;5076141;28;20096;-68
2023/07/07 10:35:13;;;;;;;;;;;24.30;48.50;;;;;;5076540;28;20001;-68
2023/07/07 10:37:39;;;;;;;;;;;24.30;47.70;;;;;;5076020;28;20453;-68
2023/07/07 10:40:11;;;;;;;;;;;24.30;48.20;;;;;;5076260;28;20092;-68
2023/07/07 10:42:38;;;;;;;;;;;24.30;49.10;;;;;;5076437;28;20333;-68
2023/07/07 10:45:05;;;;;;;;;;;24.30;48.40;;;;;;5076328;28;20044;-68
2023/07/07 10:47:32;;;;;;;;;;;24.40;48.80;;;;;;5076345;28;20332;-68
2023/07/07 10:49:59;;;;;;;;;;;24.40;47.00;;;;;;5076054;28;20422;-67
2023/07/07 10:52:36;;;;;;;;;;;24.60;47.30;;;;;;5076099;28;20001;-68
2023/07/07 10:55:05;;;;;;;;;;;24.70;43.20;;;;;;5076238;28;20325;-67
2023/07/07 10:57:36;;;;;;;;;;;24.70;44.00;;;;;;5074918;28;21995;-67
2023/07/07 11:00:12;;;;;;;;;;;24.70;43.70;;;;;;5075833;28;19997;-67
2023/07/07 11:02:49;;;;;;;;;;;24.70;43.90;;;;;;5076132;28;20099;-67
2023/07/07 11:05:30;;;;;;;;;;;24.80;42.90;;;;;;5076157;28;20007;-67
2023/07/07 11:08:02;;;;;;;;;;;24.80;42.80;;;;;;5073278;28;20341;-68
2023/07/07 11:10:44;;;;;;;;;;;24.80;42.00;;;;;;5075253;28;20103;-68
2023/07/07 11:13:16;;;;;;;;;;;24.90;43.30;;;;;;5075567;28;20448;-67
2023/07/07 11:15:46;;;;;;;;;;;25.00;42.30;;;;;;5075634;28;20092;-68
2023/07/07 11:18:27;;;;;;;;;;;25.00;40.30;;;;;;5074957;28;20016;-67
2023/07/07 11:21:05;;;;;;;;;;;25.00;41.10;;;;;;5075493;28;19996;-70
2023/07/07 11:23:40;;;;;;;;;;;25.10;40.70;;;;;;5075322;28;20001;-67
2023/07/07 11:26:12;;;;;;;;;;;25.30;43.10;;;;;;5074862;28;20054;-68
2023/07/07 11:28:47;;;;;;;;;;;25.90;42.50;;;;;;5075501;28;20333;-67
2023/07/07 11:31:23;;;;;;;;;;;27.10;42.60;;;;;;5075629;28;19996;-68
2023/07/07 11:33:53;;;;;;;;;;;28.50;38.90;;;;;;5074981;28;19997;-67
2023/07/07 11:36:31;;;;;;;;;;;29.80;37.20;;;;;;5075304;28;20001;-67
2023/07/07 11:39:06;;;;;;;;;;;31.10;33.80;;;;;;5074850;28;20103;-67
2023/07/07 11:41:39;;;;;;;;;;;32.20;30.50;;;;;;5075464;28;20099;-67
2023/07/07 11:44:14;;;;;;;;;;;33.20;28.40;;;;;;5075397;28;19997;-66
2023/07/07 11:46:46;;;;;;;;;;;34.00;25.50;;;;;;5075045;28;19997;-68
2023/07/07 11:49:23;;;;;;;;;;;34.60;24.30;;;;;;5076521;28;20001;-68
2023/07/07 11:51:55;;;;;;;;;;;34.90;21.70;;;;;;5082197;28;20023;-68
2023/07/07 11:54:33;;;;;;;;;;;35.40;21.20;;;;;;5081041;28;19997;-69
2023/07/07 11:57:07;;;;;;;;;;;35.80;20.10;;;;;;5083994;28;20099;-68
2023/07/07 11:59:45;;;;;;;;;;;36.40;19.00;;;;;;5083649;28;20022;-69
2023/07/07 12:02:16;;;;;;;;;;;36.30;17.70;;;;;;5082966;28;20217;-68
2023/07/07 12:04:47;;;;;;;;;;;36.50;17.10;;;;;;5082010;28;20011;-68
2023/07/07 12:07:16;;;;;;;;;;;36.60;17.50;;;;;;5080725;28;20043;-68
2023/07/07 12:09:48;;;;;;;;;;;36.20;16.40;;;;;;5081796;28;20317;-69
2023/07/07 12:12:17;;;;;;;;;;;35.20;16.80;;;;;;5082011;28;19997;-69
2023/07/07 12:14:48;;;;;;;;;;;35.40;17.10;;;;;;5080763;28;20333;-69
2023/07/07 12:17:17;;;;;;;;;;;35.50;16.10;;;;;;5080828;28;20001;-68
2023/07/07 12:19:47;;;;;;;;;;;35.70;16.80;;;;;;5079557;28;20017;-68
2023/07/07 12:22:17;;;;;;;;;;;36.00;16.10;;;;;;5080351;28;20007;-69
2023/07/07 12:24:48;;;;;;;;;;;36.00;16.00;;;;;;5079800;28;20012;-68
2023/07/07 12:27:17;;;;;;;;;;;35.80;16.20;;;;;;5081285;28;20001;-68
2023/07/07 12:29:48;;;;;;;;;;;34.70;16.60;;;;;;5081726;28;20100;-68
2023/07/07 12:32:14;;;;;;;;;;;34.80;16.50;;;;;;5080648;28;20001;-68
2023/07/07 12:34:44;;;;;;;;;;;34.80;16.80;;;;;;5081784;28;20382;-68
2023/07/07 12:37:15;;;;;;;;;;;34.90;15.70;;;;;;5080949;28;20070;-69
2023/07/07 12:40:00;;;;;;;;;;;34.90;16.40;;;;;;5081380;28;20451;-68
2023/07/07 12:42:28;;;;;;;;;;;35.10;15.20;;;;;;5080657;28;20513;-68
2023/07/07 12:44:55;;;;;;;;;;;35.10;15.30;;;;;;5079733;28;20001;-69
2023/07/07 12:47:32;;;;;;;;;;;35.40;15.40;;;;;;5080505;28;20047;-68
2023/07/07 12:50:00;;;;;;;;;;;35.90;15.80;;;;;;5080027;28;20012;-68
2023/07/07 12:52:28;;;;;;;;;;;36.10;14.80;;;;;;5079269;28;20012;-68
2023/07/07 12:55:03;;;;;;;;;;;36.50;14.90;;;;;;5078947;28;20414;-69
2023/07/07 12:57:35;;;;;;;;;;;36.60;14.20;;;;;;5079502;28;19997;-69
2023/07/07 13:00:21;;;;;;;;;;;36.70;14.10;;;;;;5080402;28;20021;-68
2023/07/07 13:03:05;;;;;;;;;;;36.70;13.70;;;;;;5079197;28;20087;-69
2023/07/07 13:05:32;;;;;;;;;;;37.00;14.30;;;;;;5069256;28;20091;-69
2023/07/07 13:08:00;;;;;;;;;;;36.50;13.80;;;;;;5080673;28;20001;-69
2023/07/07 13:10:32;;;;;;;;;;;35.80;14.70;;;;;;5081284;28;20000;-68
2023/07/07 13:13:17;;;;;;;;;;;35.70;14.00;;;;;;5079500;28;20585;-68
2023/07/07 13:15:44;;;;;;;;;;;35.30;14.10;;;;;;5079722;28;19997;-69
2023/07/07 13:18:12;;;;;;;;;;;34.20;15.60;;;;;;5081585;28;20001;-69
2023/07/07 13:20:40;;;;;;;;;;;33.10;15.80;;;;;;5084593;28;20027;-69
2023/07/07 13:23:09;;;;;;;;;;;32.70;16.50;;;;;;5085811;28;20088;-68
2023/07/07 13:25:37;;;;;;;;;;;33.00;17.00;;;;;;5084925;28;20011;-69
2023/07/07 13:28:09;;;;;;;;;;;33.20;15.90;;;;;;5085932;28;20001;-69
2023/07/07 13:30:38;;;;;;;;;;;33.10;16.40;;;;;;5084189;28;20388;-69
2023/07/07 13:33:05;;;;;;;;;;;33.60;16.90;;;;;;5084103;28;20076;-68
2023/07/07 13:35:33;;;;;;;;;;;34.20;16.60;;;;;;5083165;28;20005;-68
2023/07/07 13:38:06;;;;;;;;;;;34.80;16.00;;;;;;5080872;28;20040;-69
2023/07/07 13:40:35;;;;;;;;;;;35.40;15.20;;;;;;5081131;28;20424;-68
2023/07/07 13:43:02;;;;;;;;;;;35.70;15.10;;;;;;5080977;28;20005;-68
2023/07/07 13:45:31;;;;;;;;;;;36.00;14.70;;;;;;5081230;28;20095;-69
2023/07/07 13:48:00;;;;;;;;;;;36.40;14.30;;;;;;5080958;28;20001;-69
2023/07/07 13:50:27;;;;;;;;;;;36.40;14.00;;;;;;5081920;28;20001;-68
2023/07/07 13:52:55;;;;;;;;;;;36.70;14.10;;;;;;5081099;28;20037;-68
2023/07/07 13:55:22;;;;;;;;;;;36.90;13.20;;;;;;5080216;28;20012;-69
2023/07/07 13:57:49;;;;;;;;;;;36.00;12.70;;;;;;5082786;28;20024;-69
2023/07/07 14:00:26;;;;;;;;;;;35.60;13.10;;;;;;5083303;28;20412;-69
2023/07/07 14:02:52;;;;;;;;;;;35.50;13.10;;;;;;5081952;28;20356;-69
2023/07/07 14:05:21;;;;;;;;;;;35.30;13.90;;;;;;5083084;28;20337;-68
2023/07/07 14:07:49;;;;;;;;;;;34.90;13.30;;;;;;5084522;28;20067;-69
2023/07/07 14:10:28;;;;;;;;;;;34.90;14.30;;;;;;5083562;28;20024;-69
2023/07/07 14:12:58;;;;;;;;;;;35.10;13.60;;;;;;5082692;28;19996;-68
2023/07/07 14:15:30;;;;;;;;;;;35.30;13.60;;;;;;5081564;28;20418;-69
2023/07/07 14:17:56;;;;;;;;;;;35.60;14.30;;;;;;5080362;28;20096;-68
2023/07/07 14:20:26;;;;;;;;;;;35.90;13.20;;;;;;5080459;28;20023;-68
2023/07/07 14:22:53;;;;;;;;;;;36.40;13.80;;;;;;5079919;28;20009;-68
2023/07/07 14:25:21;;;;;;;;;;;36.70;13.50;;;;;;5080688;28;20023;-69
2023/07/07 14:27:48;;;;;;;;;;;36.90;13.10;;;;;;5079777;28;20024;-68